Terminal Aerodrome Forecast
Issued by NWS

Home | Current Version | Previous Version | Text Only | Print | Product List | Glossary On
Versions: 1 2 3 4 5 6 7 8 9 10 11 12
317
FTUS42 KTBW 301125
TAFLAL
TAF
KLAL 301125Z 3012/0112 13005KT P6SM FEW250
     FM301500 15009KT P6SM FEW050 SCT100
     FM010000 11006KT P6SM SCT050=

USA.gov is the U.S. government's official web portal to all federal, state and local government web resources and services.